Delta Virtual Airport Information Service

Madrid Barajas Airport

ICAO: LEMD Country: Spain
Latitude: 40.4935 Longitude: -3.56676
Latest Arrival : AEA1048 (LIRF-LEMD) Latest Departure : AEA1303 (2) (LEMD-LLBG)


WX CaptureLIVE
Data provided by noaa.gov | Fetched at 12:19:53

METAR : LEMD 281700Z 16003KT 120V190 CAVOK 23/M01 Q1017 NOSIG

TAF : LEMD 281100Z 2812/2918 VRB04KT CAVOK TX26/2916Z TN08/2906Z PROB30 TEMPO 2900/2906 01010KT


Runway Data for LEMD
Data provided by openaviationdata.com

Runway ID Mag Var Hdg Length Elevation Surface ILS Freq ILS Id ILS Slope
14L -2 144° 12205 ft 1999 ft Asphalt -- -- --
14R -2 144° 13550 ft 1999 ft Asphalt -- -- --
18L -2 182° 12138 ft 1999 ft Asphalt 111.5 IML 3
18R -2 182° 14600 ft 1999 ft Asphalt 110.7 IMR 3
32L -2 324° 13550 ft 1999 ft Asphalt 109.9 MAA 3
32R -2 324° 12205 ft 1999 ft Asphalt 109.1 MBB 3
36L -2 14600 ft 1999 ft Asphalt -- -- --
36R -2 12138 ft 1999 ft Asphalt -- -- --

Madrid Barajas Airport, Spain
Use only for reference purposes



Not for navigational purposes.